Terminal Aerodrome Forecast
Issued by NWS

Home | Current Version | Previous Version | Graphics & Text | Print | Product List | Glossary On
Versions: 1 2 3 4 5 6 7 8 9 10 11 12 13 14 15 16 17 18 19 20 21
508
FTUS43 KICT 261122
TAFSLN
TAF
KSLN 261122Z 2612/2712 14013KT P6SM SCT014 OVC022
      TEMPO 2612/2615 6SM BR OVC014
     FM261600 16017G24KT P6SM BKN025
     FM262100 15017G24KT P6SM VCTS SCT035CB BKN200
      TEMPO 2700/2704 3SM +TSRA OVC025CB
     FM270500 20012KT P6SM SCT150=

USA.gov is the U.S. government's official web portal to all federal, state and local government web resources and services.